sensor_id;sensor_type;location;lat;lon;timestamp;P1;durP1;ratioP1;P2;durP2;ratioP2
4232;SDS011;2130;48.472;11.934;2023-04-25T00:00:16;23.67;;;1.30;;
4232;SDS011;2130;48.472;11.934;2023-04-25T00:03:07;23.50;;;1.17;;
4232;SDS011;2130;48.472;11.934;2023-04-25T00:05:56;23.30;;;1.10;;
4232;SDS011;2130;48.472;11.934;2023-04-25T00:08:44;22.67;;;1.10;;
4232;SDS011;2130;48.472;11.934;2023-04-25T00:11:33;23.27;;;1.03;;
4232;SDS011;2130;48.472;11.934;2023-04-25T00:14:22;23.30;;;1.03;;
4232;SDS011;2130;48.472;11.934;2023-04-25T00:17:10;24.50;;;1.37;;
4232;SDS011;2130;48.472;11.934;2023-04-25T00:20:00;24.20;;;1.50;;
4232;SDS011;2130;48.472;11.934;2023-04-25T00:22:51;22.77;;;1.20;;
4232;SDS011;2130;48.472;11.934;2023-04-25T00:25:40;23.60;;;1.10;;
4232;SDS011;2130;48.472;11.934;2023-04-25T00:28:29;23.40;;;1.50;;
4232;SDS011;2130;48.472;11.934;2023-04-25T00:31:17;23.10;;;1.37;;
4232;SDS011;2130;48.472;11.934;2023-04-25T00:34:06;23.57;;;1.10;;
4232;SDS011;2130;48.472;11.934;2023-04-25T00:36:56;22.97;;;1.10;;
4232;SDS011;2130;48.472;11.934;2023-04-25T00:39:44;23.37;;;1.20;;
4232;SDS011;2130;48.472;11.934;2023-04-25T00:42:33;23.70;;;1.50;;
4232;SDS011;2130;48.472;11.934;2023-04-25T00:45:23;23.17;;;1.57;;
4232;SDS011;2130;48.472;11.934;2023-04-25T00:48:15;23.50;;;1.43;;
4232;SDS011;2130;48.472;11.934;2023-04-25T00:51:05;23.33;;;1.20;;
4232;SDS011;2130;48.472;11.934;2023-04-25T00:53:55;22.70;;;1.17;;
4232;SDS011;2130;48.472;11.934;2023-04-25T00:56:43;24.10;;;1.20;;
4232;SDS011;2130;48.472;11.934;2023-04-25T00:59:33;23.13;;;1.00;;
4232;SDS011;2130;48.472;11.934;2023-04-25T01:02:21;23.40;;;1.10;;
4232;SDS011;2130;48.472;11.934;2023-04-25T01:05:10;28.17;;;1.33;;
4232;SDS011;2130;48.472;11.934;2023-04-25T01:07:59;24.30;;;1.20;;
4232;SDS011;2130;48.472;11.934;2023-04-25T01:10:49;22.90;;;1.13;;
4232;SDS011;2130;48.472;11.934;2023-04-25T01:13:37;23.57;;;1.17;;
4232;SDS011;2130;48.472;11.934;2023-04-25T01:16:25;23.30;;;1.10;;
4232;SDS011;2130;48.472;11.934;2023-04-25T01:19:16;23.90;;;1.20;;
4232;SDS011;2130;48.472;11.934;2023-04-25T01:22:07;23.10;;;1.20;;
4232;SDS011;2130;48.472;11.934;2023-04-25T01:24:57;24.47;;;1.10;;
4232;SDS011;2130;48.472;11.934;2023-04-25T01:27:45;23.90;;;1.40;;
4232;SDS011;2130;48.472;11.934;2023-04-25T01:30:35;22.97;;;1.20;;
4232;SDS011;2130;48.472;11.934;2023-04-25T01:33:24;23.80;;;1.00;;
4232;SDS011;2130;48.472;11.934;2023-04-25T01:36:13;23.80;;;1.10;;
4232;SDS011;2130;48.472;11.934;2023-04-25T01:39:04;23.33;;;1.10;;
4232;SDS011;2130;48.472;11.934;2023-04-25T01:41:53;23.57;;;1.10;;
4232;SDS011;2130;48.472;11.934;2023-04-25T01:44:43;23.10;;;1.20;;
4232;SDS011;2130;48.472;11.934;2023-04-25T01:47:32;23.20;;;1.17;;
4232;SDS011;2130;48.472;11.934;2023-04-25T01:50:22;23.27;;;1.40;;
4232;SDS011;2130;48.472;11.934;2023-04-25T01:53:11;23.10;;;1.10;;
4232;SDS011;2130;48.472;11.934;2023-04-25T01:56:05;23.60;;;1.10;;
4232;SDS011;2130;48.472;11.934;2023-04-25T01:58:55;23.27;;;1.10;;
4232;SDS011;2130;48.472;11.934;2023-04-25T02:02:00;23.20;;;1.20;;
4232;SDS011;2130;48.472;11.934;2023-04-25T02:04:52;23.27;;;1.10;;
4232;SDS011;2130;48.472;11.934;2023-04-25T02:07:42;22.67;;;1.10;;
4232;SDS011;2130;48.472;11.934;2023-04-25T02:10:30;22.93;;;1.10;;
4232;SDS011;2130;48.472;11.934;2023-04-25T02:13:39;22.80;;;1.27;;
4232;SDS011;2130;48.472;11.934;2023-04-25T02:16:54;23.63;;;1.10;;
4232;SDS011;2130;48.472;11.934;2023-04-25T02:19:44;23.37;;;1.20;;
4232;SDS011;2130;48.472;11.934;2023-04-25T02:22:33;23.43;;;1.20;;
4232;SDS011;2130;48.472;11.934;2023-04-25T02:25:25;23.80;;;1.20;;
4232;SDS011;2130;48.472;11.934;2023-04-25T02:28:13;22.93;;;1.10;;
4232;SDS011;2130;48.472;11.934;2023-04-25T02:31:03;22.83;;;1.27;;
4232;SDS011;2130;48.472;11.934;2023-04-25T02:33:52;23.50;;;1.10;;
4232;SDS011;2130;48.472;11.934;2023-04-25T02:36:40;23.57;;;1.10;;
4232;SDS011;2130;48.472;11.934;2023-04-25T02:39:29;22.97;;;1.10;;
4232;SDS011;2130;48.472;11.934;2023-04-25T02:42:17;23.70;;;1.30;;
4232;SDS011;2130;48.472;11.934;2023-04-25T02:45:06;23.00;;;1.20;;
4232;SDS011;2130;48.472;11.934;2023-04-25T02:47:56;23.53;;;1.40;;
4232;SDS011;2130;48.472;11.934;2023-04-25T02:50:45;23.07;;;1.10;;
4232;SDS011;2130;48.472;11.934;2023-04-25T02:53:33;23.00;;;1.13;;
4232;SDS011;2130;48.472;11.934;2023-04-25T02:56:22;23.63;;;1.20;;
4232;SDS011;2130;48.472;11.934;2023-04-25T02:59:13;23.27;;;1.00;;
4232;SDS011;2130;48.472;11.934;2023-04-25T03:02:01;24.33;;;1.17;;
4232;SDS011;2130;48.472;11.934;2023-04-25T03:04:51;22.60;;;1.30;;
4232;SDS011;2130;48.472;11.934;2023-04-25T03:07:40;23.10;;;1.10;;
4232;SDS011;2130;48.472;11.934;2023-04-25T03:10:30;23.97;;;1.10;;
4232;SDS011;2130;48.472;11.934;2023-04-25T03:13:23;22.87;;;1.03;;
4232;SDS011;2130;48.472;11.934;2023-04-25T03:16:12;23.40;;;1.00;;
4232;SDS011;2130;48.472;11.934;2023-04-25T03:19:00;23.60;;;1.00;;
4232;SDS011;2130;48.472;11.934;2023-04-25T03:21:50;22.70;;;1.10;;
4232;SDS011;2130;48.472;11.934;2023-04-25T03:24:38;23.03;;;1.20;;
4232;SDS011;2130;48.472;11.934;2023-04-25T03:27:27;22.80;;;1.30;;
4232;SDS011;2130;48.472;11.934;2023-04-25T03:30:15;23.57;;;1.30;;
4232;SDS011;2130;48.472;11.934;2023-04-25T03:33:04;22.47;;;1.20;;
4232;SDS011;2130;48.472;11.934;2023-04-25T03:35:53;23.87;;;1.20;;
4232;SDS011;2130;48.472;11.934;2023-04-25T03:38:43;23.87;;;1.20;;
4232;SDS011;2130;48.472;11.934;2023-04-25T03:41:34;23.10;;;1.10;;
4232;SDS011;2130;48.472;11.934;2023-04-25T03:44:28;23.47;;;1.10;;
4232;SDS011;2130;48.472;11.934;2023-04-25T03:47:17;24.40;;;1.40;;
4232;SDS011;2130;48.472;11.934;2023-04-25T03:50:07;23.10;;;1.10;;
4232;SDS011;2130;48.472;11.934;2023-04-25T03:52:57;23.90;;;1.10;;
4232;SDS011;2130;48.472;11.934;2023-04-25T03:55:50;23.17;;;1.20;;
4232;SDS011;2130;48.472;11.934;2023-04-25T03:58:38;22.50;;;1.10;;
4232;SDS011;2130;48.472;11.934;2023-04-25T04:01:27;23.17;;;1.10;;
4232;SDS011;2130;48.472;11.934;2023-04-25T04:04:17;22.77;;;1.10;;
4232;SDS011;2130;48.472;11.934;2023-04-25T04:07:06;23.70;;;1.20;;
4232;SDS011;2130;48.472;11.934;2023-04-25T04:09:56;22.80;;;1.00;;
4232;SDS011;2130;48.472;11.934;2023-04-25T04:12:52;23.50;;;1.23;;
4232;SDS011;2130;48.472;11.934;2023-04-25T04:15:40;23.60;;;1.30;;
4232;SDS011;2130;48.472;11.934;2023-04-25T04:18:28;22.77;;;1.10;;
4232;SDS011;2130;48.472;11.934;2023-04-25T04:21:17;24.30;;;1.27;;
4232;SDS011;2130;48.472;11.934;2023-04-25T04:24:05;23.70;;;1.10;;
4232;SDS011;2130;48.472;11.934;2023-04-25T04:27:07;23.67;;;1.20;;
4232;SDS011;2130;48.472;11.934;2023-04-25T04:30:00;22.40;;;1.00;;
4232;SDS011;2130;48.472;11.934;2023-04-25T04:32:53;22.70;;;1.20;;
4232;SDS011;2130;48.472;11.934;2023-04-25T04:35:42;22.70;;;1.13;;
4232;SDS011;2130;48.472;11.934;2023-04-25T04:38:32;23.07;;;1.30;;
4232;SDS011;2130;48.472;11.934;2023-04-25T04:41:22;23.37;;;1.17;;
4232;SDS011;2130;48.472;11.934;2023-04-25T04:44:21;23.20;;;1.20;;
4232;SDS011;2130;48.472;11.934;2023-04-25T04:47:30;23.43;;;1.10;;
4232;SDS011;2130;48.472;11.934;2023-04-25T04:50:32;23.17;;;1.00;;
4232;SDS011;2130;48.472;11.934;2023-04-25T04:53:27;22.63;;;1.20;;
4232;SDS011;2130;48.472;11.934;2023-04-25T04:56:32;23.80;;;1.20;;
4232;SDS011;2130;48.472;11.934;2023-04-25T04:59:39;22.70;;;1.10;;
4232;SDS011;2130;48.472;11.934;2023-04-25T05:02:56;22.93;;;1.10;;
4232;SDS011;2130;48.472;11.934;2023-04-25T05:06:10;23.37;;;1.23;;
4232;SDS011;2130;48.472;11.934;2023-04-25T05:09:17;23.07;;;1.20;;
4232;SDS011;2130;48.472;11.934;2023-04-25T05:12:24;23.67;;;1.07;;
4232;SDS011;2130;48.472;11.934;2023-04-25T05:15:42;23.50;;;1.10;;
4232;SDS011;2130;48.472;11.934;2023-04-25T05:18:50;23.27;;;1.03;;
4232;SDS011;2130;48.472;11.934;2023-04-25T05:21:48;23.20;;;1.13;;
4232;SDS011;2130;48.472;11.934;2023-04-25T05:25:09;22.40;;;1.10;;
4232;SDS011;2130;48.472;11.934;2023-04-25T05:28:12;22.70;;;1.10;;
4232;SDS011;2130;48.472;11.934;2023-04-25T05:31:00;23.23;;;1.20;;
4232;SDS011;2130;48.472;11.934;2023-04-25T05:33:59;23.33;;;1.20;;
4232;SDS011;2130;48.472;11.934;2023-04-25T05:36:59;24.57;;;1.40;;
4232;SDS011;2130;48.472;11.934;2023-04-25T05:39:48;22.57;;;1.10;;
4232;SDS011;2130;48.472;11.934;2023-04-25T05:43:06;22.90;;;1.20;;
4232;SDS011;2130;48.472;11.934;2023-04-25T05:46:15;22.83;;;1.10;;
4232;SDS011;2130;48.472;11.934;2023-04-25T05:49:34;23.37;;;1.20;;
4232;SDS011;2130;48.472;11.934;2023-04-25T05:52:45;23.50;;;1.27;;
4232;SDS011;2130;48.472;11.934;2023-04-25T05:55:44;23.67;;;1.10;;
4232;SDS011;2130;48.472;11.934;2023-04-25T05:58:44;24.77;;;1.20;;
4232;SDS011;2130;48.472;11.934;2023-04-25T06:01:32;24.20;;;1.20;;
4232;SDS011;2130;48.472;11.934;2023-04-25T06:04:21;24.83;;;1.10;;
4232;SDS011;2130;48.472;11.934;2023-04-25T06:07:11;22.97;;;1.10;;
4232;SDS011;2130;48.472;11.934;2023-04-25T06:10:00;23.47;;;1.07;;
4232;SDS011;2130;48.472;11.934;2023-04-25T06:12:48;24.67;;;1.03;;
4232;SDS011;2130;48.472;11.934;2023-04-25T06:15:38;24.07;;;1.30;;
4232;SDS011;2130;48.472;11.934;2023-04-25T06:18:27;24.40;;;1.20;;
4232;SDS011;2130;48.472;11.934;2023-04-25T06:21:15;24.43;;;1.37;;
4232;SDS011;2130;48.472;11.934;2023-04-25T06:24:06;24.20;;;1.07;;
4232;SDS011;2130;48.472;11.934;2023-04-25T06:26:54;23.90;;;1.33;;
4232;SDS011;2130;48.472;11.934;2023-04-25T06:29:42;24.87;;;1.20;;
4232;SDS011;2130;48.472;11.934;2023-04-25T06:32:31;24.47;;;1.10;;
4232;SDS011;2130;48.472;11.934;2023-04-25T06:35:21;24.10;;;1.10;;
4232;SDS011;2130;48.472;11.934;2023-04-25T06:38:09;24.40;;;1.10;;
4232;SDS011;2130;48.472;11.934;2023-04-25T06:41:01;24.53;;;1.10;;
4232;SDS011;2130;48.472;11.934;2023-04-25T06:43:53;23.90;;;1.03;;
4232;SDS011;2130;48.472;11.934;2023-04-25T06:46:49;24.63;;;1.20;;
4232;SDS011;2130;48.472;11.934;2023-04-25T06:49:38;24.40;;;1.40;;
4232;SDS011;2130;48.472;11.934;2023-04-25T06:52:28;24.90;;;1.20;;
4232;SDS011;2130;48.472;11.934;2023-04-25T06:55:17;28.37;;;1.70;;
4232;SDS011;2130;48.472;11.934;2023-04-25T06:58:22;24.40;;;1.10;;
4232;SDS011;2130;48.472;11.934;2023-04-25T07:01:21;24.20;;;1.10;;
4232;SDS011;2130;48.472;11.934;2023-04-25T07:04:10;24.30;;;1.40;;
4232;SDS011;2130;48.472;11.934;2023-04-25T07:07:04;24.70;;;1.30;;
4232;SDS011;2130;48.472;11.934;2023-04-25T07:09:59;25.40;;;1.10;;
4232;SDS011;2130;48.472;11.934;2023-04-25T07:12:47;25.87;;;1.30;;
4232;SDS011;2130;48.472;11.934;2023-04-25T07:15:37;24.87;;;1.40;;
4232;SDS011;2130;48.472;11.934;2023-04-25T07:18:26;25.50;;;1.10;;
4232;SDS011;2130;48.472;11.934;2023-04-25T07:21:14;25.07;;;1.10;;
4232;SDS011;2130;48.472;11.934;2023-04-25T07:24:05;25.77;;;1.10;;
4232;SDS011;2130;48.472;11.934;2023-04-25T07:26:59;25.47;;;1.20;;
4232;SDS011;2130;48.472;11.934;2023-04-25T07:30:08;25.07;;;1.30;;
4232;SDS011;2130;48.472;11.934;2023-04-25T07:33:00;25.97;;;1.53;;
4232;SDS011;2130;48.472;11.934;2023-04-25T07:35:48;25.27;;;1.40;;
4232;SDS011;2130;48.472;11.934;2023-04-25T07:38:37;28.43;;;1.40;;
4232;SDS011;2130;48.472;11.934;2023-04-25T07:41:26;26.53;;;1.10;;
4232;SDS011;2130;48.472;11.934;2023-04-25T07:44:14;24.93;;;1.10;;
4232;SDS011;2130;48.472;11.934;2023-04-25T07:47:03;25.70;;;1.10;;
4232;SDS011;2130;48.472;11.934;2023-04-25T07:49:55;25.70;;;1.20;;
4232;SDS011;2130;48.472;11.934;2023-04-25T07:52:44;25.67;;;1.10;;
4232;SDS011;2130;48.472;11.934;2023-04-25T07:55:42;25.40;;;1.30;;
4232;SDS011;2130;48.472;11.934;2023-04-25T07:58:35;25.00;;;1.00;;
4232;SDS011;2130;48.472;11.934;2023-04-25T08:01:25;25.63;;;1.03;;
4232;SDS011;2130;48.472;11.934;2023-04-25T08:04:25;25.20;;;1.20;;
4232;SDS011;2130;48.472;11.934;2023-04-25T08:07:21;25.37;;;1.10;;
4232;SDS011;2130;48.472;11.934;2023-04-25T08:10:13;24.40;;;1.00;;
4232;SDS011;2130;48.472;11.934;2023-04-25T08:13:02;25.30;;;1.10;;
4232;SDS011;2130;48.472;11.934;2023-04-25T08:15:51;25.97;;;1.20;;
4232;SDS011;2130;48.472;11.934;2023-04-25T08:18:39;26.30;;;1.20;;
4232;SDS011;2130;48.472;11.934;2023-04-25T08:21:28;26.20;;;1.30;;
4232;SDS011;2130;48.472;11.934;2023-04-25T08:24:22;25.70;;;1.10;;
4232;SDS011;2130;48.472;11.934;2023-04-25T08:27:11;26.47;;;1.40;;
4232;SDS011;2130;48.472;11.934;2023-04-25T08:30:00;25.27;;;1.20;;
4232;SDS011;2130;48.472;11.934;2023-04-25T08:32:50;26.80;;;1.20;;
4232;SDS011;2130;48.472;11.934;2023-04-25T08:35:57;28.30;;;1.30;;
4232;SDS011;2130;48.472;11.934;2023-04-25T08:38:47;25.97;;;1.10;;
4232;SDS011;2130;48.472;11.934;2023-04-25T08:41:39;26.77;;;1.40;;
4232;SDS011;2130;48.472;11.934;2023-04-25T08:44:29;25.40;;;1.10;;
4232;SDS011;2130;48.472;11.934;2023-04-25T08:47:18;26.10;;;1.30;;
4232;SDS011;2130;48.472;11.934;2023-04-25T08:50:15;26.73;;;1.30;;
4232;SDS011;2130;48.472;11.934;2023-04-25T08:53:07;26.47;;;1.47;;
4232;SDS011;2130;48.472;11.934;2023-04-25T08:55:57;27.23;;;1.30;;
4232;SDS011;2130;48.472;11.934;2023-04-25T08:58:49;26.07;;;1.20;;
4232;SDS011;2130;48.472;11.934;2023-04-25T09:01:38;27.40;;;1.20;;
4232;SDS011;2130;48.472;11.934;2023-04-25T09:04:27;26.87;;;1.20;;
4232;SDS011;2130;48.472;11.934;2023-04-25T09:07:16;27.53;;;1.60;;
4232;SDS011;2130;48.472;11.934;2023-04-25T09:10:08;26.27;;;1.43;;
4232;SDS011;2130;48.472;11.934;2023-04-25T09:13:02;27.90;;;1.13;;
4232;SDS011;2130;48.472;11.934;2023-04-25T09:15:58;26.87;;;1.40;;
4232;SDS011;2130;48.472;11.934;2023-04-25T09:19:20;26.13;;;1.40;;
4232;SDS011;2130;48.472;11.934;2023-04-25T09:22:25;29.43;;;1.90;;
4232;SDS011;2130;48.472;11.934;2023-04-25T09:25:13;28.40;;;1.30;;
4232;SDS011;2130;48.472;11.934;2023-04-25T09:28:04;27.70;;;1.40;;
4232;SDS011;2130;48.472;11.934;2023-04-25T09:30:54;28.67;;;1.20;;
4232;SDS011;2130;48.472;11.934;2023-04-25T09:33:52;27.80;;;1.17;;
4232;SDS011;2130;48.472;11.934;2023-04-25T09:36:48;27.50;;;1.10;;
4232;SDS011;2130;48.472;11.934;2023-04-25T09:39:57;27.03;;;1.20;;
4232;SDS011;2130;48.472;11.934;2023-04-25T09:42:48;26.67;;;1.10;;
4232;SDS011;2130;48.472;11.934;2023-04-25T09:45:41;33.63;;;1.57;;
4232;SDS011;2130;48.472;11.934;2023-04-25T09:48:33;26.00;;;1.30;;
4232;SDS011;2130;48.472;11.934;2023-04-25T09:51:25;26.47;;;1.10;;
4232;SDS011;2130;48.472;11.934;2023-04-25T09:54:15;26.97;;;1.30;;
4232;SDS011;2130;48.472;11.934;2023-04-25T09:57:09;25.90;;;1.30;;
4232;SDS011;2130;48.472;11.934;2023-04-25T10:00:00;26.40;;;1.30;;
4232;SDS011;2130;48.472;11.934;2023-04-25T10:03:00;27.40;;;1.20;;
4232;SDS011;2130;48.472;11.934;2023-04-25T10:06:12;27.00;;;1.10;;
4232;SDS011;2130;48.472;11.934;2023-04-25T10:09:03;26.87;;;1.60;;
4232;SDS011;2130;48.472;11.934;2023-04-25T10:11:54;27.97;;;1.50;;
4232;SDS011;2130;48.472;11.934;2023-04-25T10:14:44;27.07;;;1.10;;
4232;SDS011;2130;48.472;11.934;2023-04-25T10:17:32;27.27;;;1.30;;
4232;SDS011;2130;48.472;11.934;2023-04-25T10:20:22;27.53;;;1.20;;
4232;SDS011;2130;48.472;11.934;2023-04-25T10:23:11;28.10;;;1.30;;
4232;SDS011;2130;48.472;11.934;2023-04-25T10:26:03;28.10;;;1.20;;
4232;SDS011;2130;48.472;11.934;2023-04-25T10:28:54;28.83;;;1.33;;
4232;SDS011;2130;48.472;11.934;2023-04-25T10:31:46;28.10;;;1.40;;
4232;SDS011;2130;48.472;11.934;2023-04-25T10:34:38;28.97;;;1.60;;
4232;SDS011;2130;48.472;11.934;2023-04-25T10:37:27;27.47;;;1.40;;
4232;SDS011;2130;48.472;11.934;2023-04-25T10:40:19;27.50;;;1.10;;
4232;SDS011;2130;48.472;11.934;2023-04-25T10:46:26;27.37;;;1.20;;
4232;SDS011;2130;48.472;11.934;2023-04-25T10:49:28;27.90;;;1.20;;
4232;SDS011;2130;48.472;11.934;2023-04-25T10:52:18;28.77;;;1.63;;
4232;SDS011;2130;48.472;11.934;2023-04-25T10:55:12;28.87;;;1.37;;
4232;SDS011;2130;48.472;11.934;2023-04-25T10:58:00;31.40;;;4.50;;
4232;SDS011;2130;48.472;11.934;2023-04-25T11:00:51;28.53;;;1.30;;
4232;SDS011;2130;48.472;11.934;2023-04-25T11:03:43;28.37;;;1.30;;
4232;SDS011;2130;48.472;11.934;2023-04-25T11:06:36;28.47;;;1.33;;
4232;SDS011;2130;48.472;11.934;2023-04-25T11:09:29;29.60;;;1.50;;
4232;SDS011;2130;48.472;11.934;2023-04-25T11:12:18;28.80;;;1.27;;
4232;SDS011;2130;48.472;11.934;2023-04-25T11:15:07;29.10;;;1.20;;
4232;SDS011;2130;48.472;11.934;2023-04-25T11:17:57;28.90;;;1.20;;
4232;SDS011;2130;48.472;11.934;2023-04-25T11:20:46;28.40;;;1.27;;
4232;SDS011;2130;48.472;11.934;2023-04-25T11:23:36;28.60;;;1.20;;
4232;SDS011;2130;48.472;11.934;2023-04-25T11:26:25;29.30;;;1.20;;
4232;SDS011;2130;48.472;11.934;2023-04-25T11:29:13;29.90;;;1.30;;
4232;SDS011;2130;48.472;11.934;2023-04-25T11:32:02;29.03;;;1.33;;
4232;SDS011;2130;48.472;11.934;2023-04-25T11:34:52;29.30;;;1.30;;
4232;SDS011;2130;48.472;11.934;2023-04-25T11:37:41;30.13;;;1.30;;
4232;SDS011;2130;48.472;11.934;2023-04-25T11:40:30;29.27;;;1.20;;
4232;SDS011;2130;48.472;11.934;2023-04-25T11:43:20;29.67;;;1.20;;
4232;SDS011;2130;48.472;11.934;2023-04-25T11:46:08;29.87;;;1.20;;
4232;SDS011;2130;48.472;11.934;2023-04-25T11:48:58;30.00;;;1.27;;
4232;SDS011;2130;48.472;11.934;2023-04-25T11:51:48;31.80;;;1.60;;
4232;SDS011;2130;48.472;11.934;2023-04-25T11:54:36;31.10;;;1.20;;
4232;SDS011;2130;48.472;11.934;2023-04-25T11:57:25;30.60;;;1.30;;
4232;SDS011;2130;48.472;11.934;2023-04-25T12:00:14;30.70;;;1.30;;
4232;SDS011;2130;48.472;11.934;2023-04-25T12:03:08;29.87;;;1.30;;
4232;SDS011;2130;48.472;11.934;2023-04-25T12:06:02;28.30;;;1.23;;
4232;SDS011;2130;48.472;11.934;2023-04-25T12:09:00;29.83;;;1.30;;
4232;SDS011;2130;48.472;11.934;2023-04-25T12:11:52;29.90;;;1.30;;
4232;SDS011;2130;48.472;11.934;2023-04-25T12:14:41;28.93;;;1.30;;
4232;SDS011;2130;48.472;11.934;2023-04-25T12:17:35;29.80;;;1.30;;
4232;SDS011;2130;48.472;11.934;2023-04-25T12:20:24;30.50;;;1.30;;
4232;SDS011;2130;48.472;11.934;2023-04-25T12:23:13;31.10;;;1.40;;
4232;SDS011;2130;48.472;11.934;2023-04-25T12:26:03;29.10;;;1.30;;
4232;SDS011;2130;48.472;11.934;2023-04-25T12:28:52;30.30;;;1.40;;
4232;SDS011;2130;48.472;11.934;2023-04-25T12:31:41;31.07;;;1.60;;
4232;SDS011;2130;48.472;11.934;2023-04-25T12:34:29;30.17;;;1.20;;
4232;SDS011;2130;48.472;11.934;2023-04-25T12:37:18;28.97;;;1.33;;
4232;SDS011;2130;48.472;11.934;2023-04-25T12:40:07;30.23;;;1.27;;
4232;SDS011;2130;48.472;11.934;2023-04-25T12:42:58;30.03;;;1.30;;
4232;SDS011;2130;48.472;11.934;2023-04-25T12:45:47;30.60;;;1.40;;
4232;SDS011;2130;48.472;11.934;2023-04-25T12:48:35;30.27;;;1.60;;
4232;SDS011;2130;48.472;11.934;2023-04-25T12:51:25;29.70;;;1.43;;
4232;SDS011;2130;48.472;11.934;2023-04-25T12:54:14;30.40;;;1.40;;
4232;SDS011;2130;48.472;11.934;2023-04-25T12:57:03;29.30;;;1.20;;
4232;SDS011;2130;48.472;11.934;2023-04-25T12:59:53;30.30;;;1.40;;
4232;SDS011;2130;48.472;11.934;2023-04-25T13:02:41;30.20;;;1.27;;
4232;SDS011;2130;48.472;11.934;2023-04-25T13:05:29;30.70;;;1.40;;
4232;SDS011;2130;48.472;11.934;2023-04-25T13:08:18;29.50;;;1.30;;
4232;SDS011;2130;48.472;11.934;2023-04-25T13:11:06;31.00;;;1.20;;
4232;SDS011;2130;48.472;11.934;2023-04-25T13:13:55;28.90;;;1.27;;
4232;SDS011;2130;48.472;11.934;2023-04-25T13:16:45;30.30;;;1.20;;
4232;SDS011;2130;48.472;11.934;2023-04-25T13:19:35;29.27;;;1.17;;
4232;SDS011;2130;48.472;11.934;2023-04-25T13:22:23;29.00;;;1.27;;
4232;SDS011;2130;48.472;11.934;2023-04-25T13:25:12;28.60;;;1.20;;
4232;SDS011;2130;48.472;11.934;2023-04-25T13:28:01;28.70;;;1.20;;
4232;SDS011;2130;48.472;11.934;2023-04-25T13:30:49;28.07;;;1.10;;
4232;SDS011;2130;48.472;11.934;2023-04-25T13:33:40;28.83;;;1.23;;
4232;SDS011;2130;48.472;11.934;2023-04-25T13:36:28;28.00;;;1.20;;
4232;SDS011;2130;48.472;11.934;2023-04-25T13:39:17;28.47;;;1.20;;
4232;SDS011;2130;48.472;11.934;2023-04-25T13:42:05;27.83;;;1.40;;
4232;SDS011;2130;48.472;11.934;2023-04-25T13:44:54;27.70;;;1.10;;
4232;SDS011;2130;48.472;11.934;2023-04-25T13:47:42;28.60;;;1.20;;
4232;SDS011;2130;48.472;11.934;2023-04-25T13:50:32;28.60;;;1.30;;
4232;SDS011;2130;48.472;11.934;2023-04-25T13:53:20;27.80;;;1.30;;
4232;SDS011;2130;48.472;11.934;2023-04-25T13:56:09;28.90;;;1.30;;
4232;SDS011;2130;48.472;11.934;2023-04-25T13:58:58;27.67;;;1.20;;
4232;SDS011;2130;48.472;11.934;2023-04-25T14:01:47;27.77;;;1.30;;
4232;SDS011;2130;48.472;11.934;2023-04-25T14:04:35;27.80;;;1.10;;
4232;SDS011;2130;48.472;11.934;2023-04-25T14:07:25;27.90;;;1.10;;
4232;SDS011;2130;48.472;11.934;2023-04-25T14:10:14;26.90;;;1.40;;
4232;SDS011;2130;48.472;11.934;2023-04-25T14:13:02;27.17;;;1.30;;
4232;SDS011;2130;48.472;11.934;2023-04-25T14:15:51;28.23;;;1.20;;
4232;SDS011;2130;48.472;11.934;2023-04-25T14:18:40;27.97;;;1.13;;
4232;SDS011;2130;48.472;11.934;2023-04-25T14:21:28;26.57;;;1.30;;
4232;SDS011;2130;48.472;11.934;2023-04-25T14:24:20;27.40;;;1.10;;
4232;SDS011;2130;48.472;11.934;2023-04-25T14:27:08;27.87;;;1.30;;
4232;SDS011;2130;48.472;11.934;2023-04-25T14:29:57;27.40;;;1.50;;
4232;SDS011;2130;48.472;11.934;2023-04-25T14:32:45;27.30;;;1.50;;
4232;SDS011;2130;48.472;11.934;2023-04-25T14:35:34;26.70;;;1.20;;
4232;SDS011;2130;48.472;11.934;2023-04-25T14:38:23;28.03;;;1.20;;
4232;SDS011;2130;48.472;11.934;2023-04-25T14:41:13;26.27;;;1.10;;
4232;SDS011;2130;48.472;11.934;2023-04-25T14:44:02;26.97;;;1.10;;
4232;SDS011;2130;48.472;11.934;2023-04-25T14:46:50;28.50;;;1.20;;
4232;SDS011;2130;48.472;11.934;2023-04-25T14:49:39;28.43;;;1.20;;
4232;SDS011;2130;48.472;11.934;2023-04-25T14:52:27;28.97;;;1.30;;
4232;SDS011;2130;48.472;11.934;2023-04-25T14:55:16;27.23;;;1.83;;
4232;SDS011;2130;48.472;11.934;2023-04-25T14:58:06;28.23;;;1.20;;
4232;SDS011;2130;48.472;11.934;2023-04-25T15:00:54;28.80;;;1.40;;
4232;SDS011;2130;48.472;11.934;2023-04-25T15:03:43;26.53;;;1.10;;
4232;SDS011;2130;48.472;11.934;2023-04-25T15:06:33;28.10;;;1.20;;
4232;SDS011;2130;48.472;11.934;2023-04-25T15:09:21;27.63;;;1.30;;
4232;SDS011;2130;48.472;11.934;2023-04-25T15:12:10;27.83;;;1.30;;
4232;SDS011;2130;48.472;11.934;2023-04-25T15:15:01;27.27;;;1.23;;
4232;SDS011;2130;48.472;11.934;2023-04-25T15:17:49;27.53;;;1.30;;
4232;SDS011;2130;48.472;11.934;2023-04-25T15:20:38;28.13;;;1.40;;
4232;SDS011;2130;48.472;11.934;2023-04-25T15:23:27;27.90;;;1.30;;
4232;SDS011;2130;48.472;11.934;2023-04-25T15:26:15;28.87;;;1.30;;
4232;SDS011;2130;48.472;11.934;2023-04-25T15:29:04;28.77;;;1.27;;
4232;SDS011;2130;48.472;11.934;2023-04-25T15:31:55;28.60;;;1.50;;
4232;SDS011;2130;48.472;11.934;2023-04-25T15:34:43;27.60;;;1.23;;
4232;SDS011;2130;48.472;11.934;2023-04-25T15:37:32;26.77;;;1.10;;
4232;SDS011;2130;48.472;11.934;2023-04-25T15:40:20;26.90;;;1.10;;
4232;SDS011;2130;48.472;11.934;2023-04-25T15:43:08;26.57;;;1.30;;
4232;SDS011;2130;48.472;11.934;2023-04-25T15:46:02;27.93;;;1.30;;
4232;SDS011;2130;48.472;11.934;2023-04-25T15:48:52;27.27;;;1.20;;
4232;SDS011;2130;48.472;11.934;2023-04-25T15:51:40;27.97;;;1.10;;
4232;SDS011;2130;48.472;11.934;2023-04-25T15:54:29;26.37;;;1.27;;
4232;SDS011;2130;48.472;11.934;2023-04-25T15:57:17;28.33;;;1.27;;
4232;SDS011;2130;48.472;11.934;2023-04-25T16:00:06;28.60;;;1.60;;
4232;SDS011;2130;48.472;11.934;2023-04-25T16:02:59;28.93;;;1.50;;
4232;SDS011;2130;48.472;11.934;2023-04-25T16:05:50;27.57;;;1.63;;
4232;SDS011;2130;48.472;11.934;2023-04-25T16:08:39;30.50;;;2.07;;
4232;SDS011;2130;48.472;11.934;2023-04-25T16:11:27;26.40;;;1.20;;
4232;SDS011;2130;48.472;11.934;2023-04-25T16:14:16;26.93;;;1.30;;
4232;SDS011;2130;48.472;11.934;2023-04-25T16:17:04;28.37;;;1.30;;
4232;SDS011;2130;48.472;11.934;2023-04-25T16:19:52;26.33;;;1.30;;
4232;SDS011;2130;48.472;11.934;2023-04-25T16:22:42;27.53;;;1.20;;
4232;SDS011;2130;48.472;11.934;2023-04-25T16:25:31;26.20;;;1.10;;
4232;SDS011;2130;48.472;11.934;2023-04-25T16:28:19;27.20;;;1.17;;
4232;SDS011;2130;48.472;11.934;2023-04-25T16:31:07;26.37;;;1.17;;
4232;SDS011;2130;48.472;11.934;2023-04-25T16:33:56;26.80;;;1.20;;
4232;SDS011;2130;48.472;11.934;2023-04-25T16:36:44;26.20;;;1.10;;
4232;SDS011;2130;48.472;11.934;2023-04-25T16:39:34;26.53;;;1.20;;
4232;SDS011;2130;48.472;11.934;2023-04-25T16:42:23;26.27;;;1.27;;
4232;SDS011;2130;48.472;11.934;2023-04-25T16:45:11;27.37;;;1.10;;
4232;SDS011;2130;48.472;11.934;2023-04-25T16:48:00;26.20;;;1.20;;
4232;SDS011;2130;48.472;11.934;2023-04-25T16:50:48;26.57;;;1.30;;
4232;SDS011;2130;48.472;11.934;2023-04-25T16:53:38;27.37;;;1.33;;
4232;SDS011;2130;48.472;11.934;2023-04-25T16:56:28;27.97;;;1.50;;
4232;SDS011;2130;48.472;11.934;2023-04-25T16:59:17;27.47;;;1.60;;
4232;SDS011;2130;48.472;11.934;2023-04-25T17:02:06;27.40;;;1.30;;
4232;SDS011;2130;48.472;11.934;2023-04-25T17:04:58;26.17;;;1.10;;
4232;SDS011;2130;48.472;11.934;2023-04-25T17:07:46;26.37;;;1.13;;
4232;SDS011;2130;48.472;11.934;2023-04-25T17:10:35;26.17;;;1.20;;
4232;SDS011;2130;48.472;11.934;2023-04-25T17:13:25;27.50;;;1.10;;
4232;SDS011;2130;48.472;11.934;2023-04-25T17:16:17;27.00;;;1.20;;